Rogers Spring, Nevada Weather observations

Data are for 10 minute period ending at time listed.
 Day   Time   Solar   Ave.   Ave.  Ave.  Vector  Max.   Baro.   Total    
  of    of     Rad.   Air    Rel.  Wind   Wind   Wind  Press.  Precip.   
Year   Day            Temp.  Hum.  Speed  Dir.   Gust                    
2014   (PST)  Kw/m2    F      %     mph   deg.    mph    mb.     in.     
-------------------------------------------------------------------------
 233    9:50   0.79   89.6    17    2.6   201     6.9   933.5    0.00 
 233   10:00   0.81   89.8    17    1.6    52     5.2   933.4    0.00 
 233   10:10   0.82   90.4    17    3.6   228     9.2   933.3    0.00 
 233   10:20   0.84   90.1    18    3.5   248     8.1   933.2    0.00 
 233   10:30   0.86   91.7    17    3.4   199     8.3   933.1    0.00 
 233   10:40   0.87   92.2    16    3.8   177     7.5   933.1    0.00 
 233   10:50   0.88   92.9    17    3.8   221     7.5   933.0    0.00 
 233   11:00   0.89   92.6    17    3.6   211     7.2   932.8    0.00 
 233   11:10   0.90   91.9    18    5.3   238    10.0   932.8    0.00 
 233   11:20   0.91   93.1    18    3.8   222    10.4   932.7    0.00 
 233   11:30   0.91   93.7    17    4.3   192     9.0   932.6    0.00 
 233   11:40   0.92   93.2    16    1.9   178     7.2   932.4    0.00 
 233   11:50   0.92   94.4    16    3.8   182    11.2   932.3    0.00 
 233   12:00   0.92   94.5    16    4.8   134    11.0   932.2    0.00 
 233   12:10   0.92   94.8    15    6.1   168    12.9   932.1    0.00 
 233   12:20   0.92   94.5    16    5.9   224    12.6   932.1    0.00 
 233   12:30   0.92   94.4    16    6.5   203    15.6   932.0    0.00 
 233   12:40   0.91   94.7    16    5.4   198    11.4   931.9    0.00 
 233   12:50   0.90   95.9    15    6.0   175    13.2   931.9    0.00 
 233   13:00   0.89   95.6    15    2.6   216     9.7   931.8    0.00 
 233   13:10   0.89   96.6    15    5.1   152    12.9   931.7    0.00 
 233   13:20   0.89   96.6    15    3.9   204    10.4   931.6    0.00 
 233   13:30   0.89   96.5    15    4.3   208    10.6   931.5    0.00 
 233   13:40   0.89   96.6    14    4.2   133    13.7   931.4    0.00 
 233   13:50   0.67   97.4    14    6.2   172    11.8   931.4    0.00 
 233   14:00   0.65   94.7    16    6.4   205    14.2   931.3    0.00 
 233   14:10   0.84   96.5    15    7.5   184    15.1   931.1    0.00 
 233   14:20   0.76   97.5    14    6.1   166    13.5   931.0    0.00 
 233   14:30   0.76   97.0    15    4.8   168    12.4   931.0    0.00 
 233   14:40   0.74   97.3    14    8.3   187    15.9   930.8    0.00 
 233   14:50   0.73   97.3    15    7.4   173    12.5   930.7    0.00 
 233   15:00   0.55   96.0    16    9.7   156    17.8   930.8    0.00 
 233   15:10   0.24   91.8    20   10.5   146    19.9   930.9    0.00 
 233   15:20   0.28   89.9    23   11.9   156    21.6   930.7    0.00 
 233   15:30   0.58   90.9    23   14.0   150    24.6   930.5    0.00 
 233   15:40   0.54   90.7    23   13.5   148    28.3   930.6    0.00 
 233   15:50   0.51   90.1    24   12.7   146    22.2   930.5    0.00 
 233   16:00   0.48   89.9    23   12.4   149    23.9   930.5    0.00 
 233   16:10   0.44   89.6    22   12.1   145    22.1   930.6    0.00 
 233   16:20   0.39   89.4    21   11.2   144    24.8   930.5    0.00 
 233   16:30   0.36   88.7    21   14.2   149    24.9   930.5    0.00 
 233   16:40   0.32   88.4    21   13.3   146    22.3   930.6    0.00 
 233   16:50   0.28   88.2    21   11.9   151    22.8   930.5    0.00 
 233   17:00   0.25   87.9    21   11.8   146    22.4   930.5    0.00 
 233   17:10   0.21   87.7    21   11.0   149    22.1   930.5    0.00 
 233   17:20   0.18   87.0    22   12.1   155    20.3   930.4    0.00 
 233   17:30   0.15   86.4    22   11.5   155    20.2   930.5    0.00 
 233   17:40   0.12   86.0    22    9.2   148    18.8   930.4    0.00 
 233   17:50   0.09   85.6    23    9.8   152    17.8   930.4    0.00 
 233   18:00   0.07   85.4    23    8.9   153    16.9   930.5    0.00 
 233   18:10   0.04   84.9    23    9.5   158    16.3   930.6    0.00 
 233   18:20   0.02   84.4    23    9.2   154    15.3   930.7    0.00 
 233   18:30   0.01   83.9    24    8.1   156    14.9   930.8    0.00 
 233   18:40   0.00   83.6    24    7.3   153    14.2   930.9    0.00 
 233   18:50   0.00   83.1    24    7.0   154    11.8   930.9    0.00 
 233   19:00   0.00   82.7    24    6.1   155    10.9   931.1    0.00 
 233   19:10   0.00   82.3    25    5.2   156     9.6   931.2    0.00 
 233   19:20   0.00   82.0    25    5.5   154    10.7   931.4    0.00 
 233   19:30   0.00   81.4    26    3.8   149     8.5   931.5    0.00 
 233   19:40   0.00   80.9    26    3.7   140     7.5   931.7    0.00 
 233   19:50   0.00   80.8    26    4.1   143     8.9   931.9    0.00 
 233   20:00   0.00   81.2    26    4.6   145     8.7   931.9    0.00 
 233   20:10   0.00   80.8    27    5.1   152     9.6   932.0    0.00 
 233   20:20   0.00   80.7    28    4.9   153     9.3   932.0    0.00 
 233   20:30   0.00   80.2    28    5.4   154    10.6   932.2    0.00 
 233   20:40   0.00   80.0    28    4.5   150     7.9   932.2    0.00 
 233   20:50   0.00   79.3    29    4.2   152     7.2   932.3    0.00 
 233   21:00   0.00   78.9    30    4.7   157     7.6   932.3    0.00 
 233   21:10   0.00   78.3    30    4.6   154     8.3   932.3    0.00 
 233   21:20   0.00   78.3    31    4.6   145     8.2   932.3    0.00 
 233   21:30   0.00   78.3    30    3.7   156     7.7   932.4    0.00 
 233   21:40   0.00   78.5    30    4.2   158    10.3   932.5    0.00 
 233   21:50   0.00   77.1    32    2.7   166     5.7   932.6    0.00 
 233   22:00   0.00   75.6    33    1.7   178     4.5   932.7    0.00 
 233   22:10   0.00   74.5    34    1.3   187     3.2   932.9    0.00 
 233   22:20   0.00   73.4    36    1.6   179     3.1   933.0    0.00 
 233   22:30   0.00   72.9    37    3.0   162     7.6   933.0    0.00 
 233   22:40   0.00   75.7    36    5.0   154     9.9   933.1    0.00 
 233   22:50   0.00   76.9    36    5.4   153    11.4   933.1    0.00 
 233   23:00   0.00   77.3    37    6.2   151    11.6   933.2    0.00 
 233   23:10   0.00   77.4    36    5.7   145    11.4   933.2    0.00 
 233   23:20   0.00   76.7    37    4.1   173     9.3   933.2    0.00 
 233   23:30   0.00   75.3    40    4.2   178     8.6   933.3    0.00 
 233   23:40   0.00   76.1    38    5.0   168    11.3   933.2    0.00 
 233   23:50   0.00   75.7    38    5.6   156     8.9   933.2    0.00 
 234    0:00   0.00   74.7    39    3.2   164     6.1   933.2    0.00 
 234    0:10   0.00   73.1    42    1.6   157     2.5   933.3    0.00 
 234    0:20   0.00   72.0    44    2.1   134     3.8   933.2    0.00 
 234    0:30   0.00   72.3    44    2.8   134     6.4   933.2    0.00 
 234    0:40   0.00   73.2    44    3.9   144     8.5   933.2    0.00 
 234    0:50   0.00   73.3    44    3.1   137     6.1   933.2    0.00 
 234    1:00   0.00   73.6    44    3.3   129     6.9   933.2    0.00 
 234    1:10   0.00   74.0    44    2.3   137     5.4   933.2    0.00 
 234    1:20   0.00   74.0    44    2.6   112     5.4   933.2    0.00 
 234    1:30   0.00   73.5    44    2.2   113     4.4   933.2    0.00 
 234    1:40   0.00   73.3    45    1.0   158     2.0   933.2    0.00 
 234    1:50   0.00   70.7    49    1.7   168     2.7   933.2    0.00 
 234    2:00   0.00   69.7    50    2.1   166     3.8   933.3    0.00 
 234    2:10   0.00   69.5    51    2.3   160     4.1   933.1    0.00 
 234    2:20   0.00   69.6    51    2.0   155     3.1   933.1    0.00 
 234    2:30   0.00   68.9    53    1.6    93     2.3   933.1    0.00 
 234    2:40   0.00   67.6    55    2.2    76     3.7   933.0    0.00 
 234    2:50   0.00   68.2    54    1.5    68     3.2   932.8    0.00 
 234    3:00   0.00   67.5    54    0.8    53     1.8   932.7    0.00 
 234    3:10   0.00   65.8    57    0.4    45     1.3   932.7    0.00 
 234    3:20   0.00   63.7    61    0.6   331     2.0   932.6    0.00 
 234    3:30   0.00   63.6    62    0.3   160     2.2   932.6    0.00 
 234    3:40   0.00   64.5    59    2.3   164     3.8   932.5    0.00 
 234    3:50   0.00   66.1    56    3.3   160     5.6   932.5    0.00 
 234    4:00   0.00   68.5    52    3.2   172     6.2   932.6    0.00 
 234    4:10   0.00   68.8    51    3.2   174     5.5   932.6    0.00 
 234    4:20   0.00   68.8    51    2.8   180     5.7   932.8    0.00 
 234    4:30   0.00   68.5    52    2.9   184     6.6   932.8    0.00 
 234    4:40   0.00   68.6    52    2.9   169     6.2   932.9    0.00 
 234    4:50   0.00   68.2    52    1.2   164     4.2   933.1    0.00 
 234    5:00   0.00   67.7    53    3.0   164     6.9   933.1    0.00 
 234    5:10   0.00   68.7    52    4.1   160     7.6   933.1    0.00 
 234    5:20   0.01   69.4    51    4.1   171     6.9   933.2    0.00 
 234    5:30   0.03   70.3    50    4.8   160     9.5   933.3    0.00 
 234    5:40   0.05   71.5    48    5.1   162     8.6   933.3    0.00 
 234    5:50   0.07   72.2    47    5.1   166     9.3   933.4    0.00 
 234    6:00   0.10   73.3    46    5.6   168    10.0   933.4    0.00 
 234    6:10   0.12   74.1    45    5.0   170     9.3   933.5    0.00 
 234    6:20   0.16   74.9    44    5.9   160    10.8   933.5    0.00 
 234    6:30   0.19   76.0    41    6.9   150    14.5   933.5    0.00 
 234    6:40   0.22   76.9    40    6.7   156    11.6   933.4    0.00 
 234    6:50   0.25   77.9    38    5.2   156     8.8   933.4    0.00 
 234    7:00   0.28   78.4    37    5.8   161    10.2   933.4    0.00 
 234    7:10   0.32   78.5    37    6.4   166    10.8   933.3    0.00 
 234    7:20   0.35   78.6    37    6.6   162    11.7   933.3    0.00 
 234    7:30   0.39   79.6    36    5.6   163     9.7   933.3    0.00 
 234    7:40   0.42   80.4    35    5.3   154     9.9   933.2    0.00 
 234    7:50   0.46   80.5    34    5.9   159    11.2   933.1    0.00 
 234    8:00   0.49   81.3    34    4.9   168     9.1   933.0    0.00 
 234    8:10   0.52   82.2    33    4.8   194     9.0   932.9    0.00 
 234    8:20   0.55   82.8    32    4.5   188     8.6   932.8    0.00 
 234    8:30   0.58   83.4    31    4.1   191     7.7   932.8    0.00 
 234    8:40   0.61   83.8    31    4.5   177     9.0   932.6    0.00 
 234    8:50   0.64   84.6    30    4.7   168     9.0   932.5    0.00 
 234    9:00   0.66   85.4    29    4.5   164    10.7   932.5    0.00 
 234    9:10   0.69   86.5    28    3.9   174     8.7   932.4    0.00 
 234    9:20   0.71   87.2    27    6.3   146    11.1   932.4    0.00 
 234    9:30   0.74   87.3    27    6.2   169    12.1   932.3    0.00 
 234    9:40   0.76   87.7    26    6.5   164    14.3   932.2    0.00 

Return to Rogers Spring graphs page.


Western Regional Climate Center,wrcc@dri.edu